sensor_id;sensor_type;location;lat;lon;timestamp;P1;durP1;ratioP1;P2;durP2;ratioP2
78416;SDS011;67715;46.170;6.140;2023-07-13T00:00:24;3.35;;;2.35;;
78416;SDS011;67715;46.170;6.140;2023-07-13T00:02:50;4.88;;;2.38;;
78416;SDS011;67715;46.170;6.140;2023-07-13T00:05:18;7.60;;;3.00;;
78416;SDS011;67715;46.170;6.140;2023-07-13T00:07:44;3.70;;;2.30;;
78416;SDS011;67715;46.170;6.140;2023-07-13T00:10:11;3.67;;;2.17;;
78416;SDS011;67715;46.170;6.140;2023-07-13T00:12:36;5.25;;;2.72;;
78416;SDS011;67715;46.170;6.140;2023-07-13T00:15:05;4.68;;;2.50;;
78416;SDS011;67715;46.170;6.140;2023-07-13T00:17:32;3.97;;;2.45;;
78416;SDS011;67715;46.170;6.140;2023-07-13T00:19:57;3.47;;;1.88;;
78416;SDS011;67715;46.170;6.140;2023-07-13T00:22:23;4.10;;;2.35;;
78416;SDS011;67715;46.170;6.140;2023-07-13T00:24:50;4.70;;;2.17;;
78416;SDS011;67715;46.170;6.140;2023-07-13T00:27:21;3.58;;;2.00;;
78416;SDS011;67715;46.170;6.140;2023-07-13T00:29:46;4.43;;;2.40;;
78416;SDS011;67715;46.170;6.140;2023-07-13T00:32:11;6.20;;;2.47;;
78416;SDS011;67715;46.170;6.140;2023-07-13T00:34:37;3.47;;;2.33;;
78416;SDS011;67715;46.170;6.140;2023-07-13T00:37:03;5.15;;;2.33;;
78416;SDS011;67715;46.170;6.140;2023-07-13T00:39:31;3.85;;;2.20;;
78416;SDS011;67715;46.170;6.140;2023-07-13T00:41:57;5.45;;;2.22;;
78416;SDS011;67715;46.170;6.140;2023-07-13T00:44:22;3.57;;;2.20;;
78416;SDS011;67715;46.170;6.140;2023-07-13T00:46:48;4.07;;;2.20;;
78416;SDS011;67715;46.170;6.140;2023-07-13T00:49:15;4.45;;;2.42;;
78416;SDS011;67715;46.170;6.140;2023-07-13T00:51:45;4.90;;;2.47;;
78416;SDS011;67715;46.170;6.140;2023-07-13T00:54:16;4.40;;;2.97;;
78416;SDS011;67715;46.170;6.140;2023-07-13T00:56:43;4.07;;;2.50;;
78416;SDS011;67715;46.170;6.140;2023-07-13T00:59:10;4.78;;;2.78;;
78416;SDS011;67715;46.170;6.140;2023-07-13T01:01:37;3.95;;;2.33;;
78416;SDS011;67715;46.170;6.140;2023-07-13T01:04:04;5.93;;;2.55;;
78416;SDS011;67715;46.170;6.140;2023-07-13T01:06:32;3.75;;;2.38;;
78416;SDS011;67715;46.170;6.140;2023-07-13T01:09:00;3.72;;;2.15;;
78416;SDS011;67715;46.170;6.140;2023-07-13T01:11:26;4.78;;;2.20;;
78416;SDS011;67715;46.170;6.140;2023-07-13T01:13:52;4.15;;;2.10;;
78416;SDS011;67715;46.170;6.140;2023-07-13T01:16:20;3.33;;;1.90;;
78416;SDS011;67715;46.170;6.140;2023-07-13T01:18:50;5.65;;;2.30;;
78416;SDS011;67715;46.170;6.140;2023-07-13T01:21:16;5.78;;;2.30;;
78416;SDS011;67715;46.170;6.140;2023-07-13T01:23:42;5.57;;;2.45;;
78416;SDS011;67715;46.170;6.140;2023-07-13T01:26:09;5.53;;;2.72;;
78416;SDS011;67715;46.170;6.140;2023-07-13T01:28:34;3.80;;;2.38;;
78416;SDS011;67715;46.170;6.140;2023-07-13T01:31:02;5.15;;;2.38;;
78416;SDS011;67715;46.170;6.140;2023-07-13T01:33:27;5.97;;;2.47;;
78416;SDS011;67715;46.170;6.140;2023-07-13T01:35:53;4.60;;;2.33;;
78416;SDS011;67715;46.170;6.140;2023-07-13T01:38:19;3.55;;;2.35;;
78416;SDS011;67715;46.170;6.140;2023-07-13T01:40:46;5.03;;;2.25;;
78416;SDS011;67715;46.170;6.140;2023-07-13T01:43:11;5.60;;;2.07;;
78416;SDS011;67715;46.170;6.140;2023-07-13T01:45:37;3.30;;;2.10;;
78416;SDS011;67715;46.170;6.140;2023-07-13T01:48:03;5.55;;;2.38;;
78416;SDS011;67715;46.170;6.140;2023-07-13T01:50:31;4.32;;;2.40;;
78416;SDS011;67715;46.170;6.140;2023-07-13T01:52:56;4.13;;;2.20;;
78416;SDS011;67715;46.170;6.140;2023-07-13T01:55:22;4.23;;;2.13;;
78416;SDS011;67715;46.170;6.140;2023-07-13T01:57:47;4.25;;;2.70;;
78416;SDS011;67715;46.170;6.140;2023-07-13T02:00:13;2.83;;;2.10;;
78416;SDS011;67715;46.170;6.140;2023-07-13T02:02:39;3.90;;;2.17;;
78416;SDS011;67715;46.170;6.140;2023-07-13T02:05:04;3.87;;;2.30;;
78416;SDS011;67715;46.170;6.140;2023-07-13T02:07:31;3.25;;;2.50;;
78416;SDS011;67715;46.170;6.140;2023-07-13T02:09:56;3.50;;;2.00;;
78416;SDS011;67715;46.170;6.140;2023-07-13T02:12:21;2.57;;;1.73;;
78416;SDS011;67715;46.170;6.140;2023-07-13T02:14:46;3.93;;;2.00;;
78416;SDS011;67715;46.170;6.140;2023-07-13T02:17:12;5.77;;;2.40;;
78416;SDS011;67715;46.170;6.140;2023-07-13T02:19:38;4.07;;;2.30;;
78416;SDS011;67715;46.170;6.140;2023-07-13T02:22:03;2.70;;;2.00;;
78416;SDS011;67715;46.170;6.140;2023-07-13T02:24:29;3.15;;;2.20;;
78416;SDS011;67715;46.170;6.140;2023-07-13T02:26:54;4.53;;;2.00;;
78416;SDS011;67715;46.170;6.140;2023-07-13T02:29:20;3.63;;;1.60;;
78416;SDS011;67715;46.170;6.140;2023-07-13T02:31:45;3.08;;;2.00;;
78416;SDS011;67715;46.170;6.140;2023-07-13T02:34:11;4.30;;;2.20;;
78416;SDS011;67715;46.170;6.140;2023-07-13T02:36:36;2.70;;;1.93;;
78416;SDS011;67715;46.170;6.140;2023-07-13T02:39:02;2.73;;;1.90;;
78416;SDS011;67715;46.170;6.140;2023-07-13T02:41:29;2.65;;;2.00;;
78416;SDS011;67715;46.170;6.140;2023-07-13T02:43:54;3.97;;;1.90;;
78416;SDS011;67715;46.170;6.140;2023-07-13T02:46:27;6.07;;;2.22;;
78416;SDS011;67715;46.170;6.140;2023-07-13T02:48:53;3.60;;;2.42;;
78416;SDS011;67715;46.170;6.140;2023-07-13T02:51:18;2.57;;;1.70;;
78416;SDS011;67715;46.170;6.140;2023-07-13T02:53:43;3.07;;;2.10;;
78416;SDS011;67715;46.170;6.140;2023-07-13T02:56:09;3.50;;;2.20;;
78416;SDS011;67715;46.170;6.140;2023-07-13T02:58:34;4.87;;;2.40;;
78416;SDS011;67715;46.170;6.140;2023-07-13T03:01:05;3.08;;;1.88;;
78416;SDS011;67715;46.170;6.140;2023-07-13T03:03:31;3.35;;;1.80;;
78416;SDS011;67715;46.170;6.140;2023-07-13T03:06:00;3.73;;;1.80;;
78416;SDS011;67715;46.170;6.140;2023-07-13T03:08:28;3.28;;;2.13;;
78416;SDS011;67715;46.170;6.140;2023-07-13T03:11:00;3.13;;;2.17;;
78416;SDS011;67715;46.170;6.140;2023-07-13T03:13:26;4.68;;;1.75;;
78416;SDS011;67715;46.170;6.140;2023-07-13T03:15:52;3.23;;;2.10;;
78416;SDS011;67715;46.170;6.140;2023-07-13T03:18:17;4.57;;;2.30;;
78416;SDS011;67715;46.170;6.140;2023-07-13T03:20:42;3.72;;;2.55;;
78416;SDS011;67715;46.170;6.140;2023-07-13T03:23:08;5.53;;;2.07;;
78416;SDS011;67715;46.170;6.140;2023-07-13T03:25:33;6.43;;;2.10;;
78416;SDS011;67715;46.170;6.140;2023-07-13T03:27:58;3.97;;;1.90;;
78416;SDS011;67715;46.170;6.140;2023-07-13T03:30:23;3.27;;;1.93;;
78416;SDS011;67715;46.170;6.140;2023-07-13T03:32:49;3.93;;;2.30;;
78416;SDS011;67715;46.170;6.140;2023-07-13T03:35:14;4.50;;;1.67;;
78416;SDS011;67715;46.170;6.140;2023-07-13T03:37:39;3.85;;;1.83;;
78416;SDS011;67715;46.170;6.140;2023-07-13T03:40:07;3.25;;;1.90;;
78416;SDS011;67715;46.170;6.140;2023-07-13T03:42:34;3.85;;;1.83;;
78416;SDS011;67715;46.170;6.140;2023-07-13T03:44:59;4.07;;;2.30;;
78416;SDS011;67715;46.170;6.140;2023-07-13T03:47:25;3.58;;;1.80;;
78416;SDS011;67715;46.170;6.140;2023-07-13T03:49:50;7.33;;;2.50;;
78416;SDS011;67715;46.170;6.140;2023-07-13T03:52:15;4.53;;;2.10;;
78416;SDS011;67715;46.170;6.140;2023-07-13T03:54:41;4.33;;;2.10;;
78416;SDS011;67715;46.170;6.140;2023-07-13T03:57:06;3.40;;;2.17;;
78416;SDS011;67715;46.170;6.140;2023-07-13T03:59:31;4.05;;;2.20;;
78416;SDS011;67715;46.170;6.140;2023-07-13T04:01:57;3.85;;;2.00;;
78416;SDS011;67715;46.170;6.140;2023-07-13T04:04:22;4.67;;;2.07;;
78416;SDS011;67715;46.170;6.140;2023-07-13T04:06:47;5.30;;;2.13;;
78416;SDS011;67715;46.170;6.140;2023-07-13T04:09:13;4.53;;;2.10;;
78416;SDS011;67715;46.170;6.140;2023-07-13T04:11:38;4.30;;;2.80;;
78416;SDS011;67715;46.170;6.140;2023-07-13T04:14:03;4.73;;;1.90;;
78416;SDS011;67715;46.170;6.140;2023-07-13T04:16:29;3.88;;;2.05;;
78416;SDS011;67715;46.170;6.140;2023-07-13T04:18:55;4.78;;;1.92;;
78416;SDS011;67715;46.170;6.140;2023-07-13T04:21:24;5.55;;;1.83;;
78416;SDS011;67715;46.170;6.140;2023-07-13T04:23:50;7.22;;;2.30;;
78416;SDS011;67715;46.170;6.140;2023-07-13T04:26:16;7.37;;;2.53;;
78416;SDS011;67715;46.170;6.140;2023-07-13T04:28:41;5.23;;;1.83;;
78416;SDS011;67715;46.170;6.140;2023-07-13T04:31:06;8.88;;;2.53;;
78416;SDS011;67715;46.170;6.140;2023-07-13T04:33:32;8.70;;;3.13;;
78416;SDS011;67715;46.170;6.140;2023-07-13T04:35:57;7.95;;;2.83;;
78416;SDS011;67715;46.170;6.140;2023-07-13T04:38:24;5.90;;;3.42;;
78416;SDS011;67715;46.170;6.140;2023-07-13T04:40:54;5.72;;;2.63;;
78416;SDS011;67715;46.170;6.140;2023-07-13T04:43:20;4.25;;;2.30;;
78416;SDS011;67715;46.170;6.140;2023-07-13T04:45:45;7.67;;;2.60;;
78416;SDS011;67715;46.170;6.140;2023-07-13T04:48:11;7.60;;;3.05;;
78416;SDS011;67715;46.170;6.140;2023-07-13T04:50:36;4.37;;;2.10;;
78416;SDS011;67715;46.170;6.140;2023-07-13T04:53:02;5.35;;;2.70;;
78416;SDS011;67715;46.170;6.140;2023-07-13T04:55:28;4.95;;;2.22;;
78416;SDS011;67715;46.170;6.140;2023-07-13T04:57:55;5.07;;;2.10;;
78416;SDS011;67715;46.170;6.140;2023-07-13T05:00:21;7.85;;;2.55;;
78416;SDS011;67715;46.170;6.140;2023-07-13T05:02:46;4.38;;;2.05;;
78416;SDS011;67715;46.170;6.140;2023-07-13T05:05:11;5.78;;;2.15;;
78416;SDS011;67715;46.170;6.140;2023-07-13T05:07:37;3.65;;;2.08;;
78416;SDS011;67715;46.170;6.140;2023-07-13T05:10:03;3.60;;;2.07;;
78416;SDS011;67715;46.170;6.140;2023-07-13T05:12:29;4.57;;;2.03;;
78416;SDS011;67715;46.170;6.140;2023-07-13T05:14:54;4.75;;;2.35;;
78416;SDS011;67715;46.170;6.140;2023-07-13T05:17:20;4.50;;;2.20;;
78416;SDS011;67715;46.170;6.140;2023-07-13T05:19:45;4.07;;;1.77;;
78416;SDS011;67715;46.170;6.140;2023-07-13T05:22:10;2.60;;;2.07;;
78416;SDS011;67715;46.170;6.140;2023-07-13T05:24:35;3.83;;;1.83;;
78416;SDS011;67715;46.170;6.140;2023-07-13T05:27:01;3.63;;;1.97;;
78416;SDS011;67715;46.170;6.140;2023-07-13T05:29:26;4.28;;;1.95;;
78416;SDS011;67715;46.170;6.140;2023-07-13T05:31:52;3.10;;;2.00;;
78416;SDS011;67715;46.170;6.140;2023-07-13T05:34:17;6.28;;;1.85;;
78416;SDS011;67715;46.170;6.140;2023-07-13T05:36:43;3.77;;;1.70;;
78416;SDS011;67715;46.170;6.140;2023-07-13T05:39:08;2.33;;;1.50;;
78416;SDS011;67715;46.170;6.140;2023-07-13T05:41:33;2.85;;;1.88;;
78416;SDS011;67715;46.170;6.140;2023-07-13T05:43:59;6.20;;;2.00;;
78416;SDS011;67715;46.170;6.140;2023-07-13T05:46:24;3.80;;;1.67;;
78416;SDS011;67715;46.170;6.140;2023-07-13T05:48:50;3.95;;;1.73;;
78416;SDS011;67715;46.170;6.140;2023-07-13T05:51:15;3.47;;;1.97;;
78416;SDS011;67715;46.170;6.140;2023-07-13T05:53:40;3.30;;;1.60;;
78416;SDS011;67715;46.170;6.140;2023-07-13T05:56:06;2.40;;;1.87;;
78416;SDS011;67715;46.170;6.140;2023-07-13T05:58:31;3.35;;;2.10;;
78416;SDS011;67715;46.170;6.140;2023-07-13T06:01:00;1.90;;;1.37;;
78416;SDS011;67715;46.170;6.140;2023-07-13T06:03:29;2.50;;;1.70;;
78416;SDS011;67715;46.170;6.140;2023-07-13T06:05:54;3.80;;;2.13;;
78416;SDS011;67715;46.170;6.140;2023-07-13T06:08:20;3.80;;;1.80;;
78416;SDS011;67715;46.170;6.140;2023-07-13T06:10:45;3.47;;;1.90;;
78416;SDS011;67715;46.170;6.140;2023-07-13T06:13:10;3.93;;;1.43;;
78416;SDS011;67715;46.170;6.140;2023-07-13T06:15:35;2.27;;;1.40;;
78416;SDS011;67715;46.170;6.140;2023-07-13T06:18:01;3.10;;;1.90;;
78416;SDS011;67715;46.170;6.140;2023-07-13T06:20:26;3.97;;;1.67;;
78416;SDS011;67715;46.170;6.140;2023-07-13T06:22:51;2.90;;;1.20;;
78416;SDS011;67715;46.170;6.140;2023-07-13T06:25:17;2.42;;;1.52;;
78416;SDS011;67715;46.170;6.140;2023-07-13T06:27:42;4.23;;;1.60;;
78416;SDS011;67715;46.170;6.140;2023-07-13T06:30:08;2.10;;;1.25;;
78416;SDS011;67715;46.170;6.140;2023-07-13T06:32:34;5.05;;;1.80;;
78416;SDS011;67715;46.170;6.140;2023-07-13T06:34:59;2.47;;;1.20;;
78416;SDS011;67715;46.170;6.140;2023-07-13T06:37:24;3.43;;;1.43;;
78416;SDS011;67715;46.170;6.140;2023-07-13T06:39:50;2.00;;;1.20;;
78416;SDS011;67715;46.170;6.140;2023-07-13T06:42:16;2.90;;;1.40;;
78416;SDS011;67715;46.170;6.140;2023-07-13T06:44:41;4.18;;;1.60;;
78416;SDS011;67715;46.170;6.140;2023-07-13T06:47:06;2.53;;;1.45;;
78416;SDS011;67715;46.170;6.140;2023-07-13T06:49:32;1.93;;;1.33;;
78416;SDS011;67715;46.170;6.140;2023-07-13T06:51:57;4.55;;;1.63;;
78416;SDS011;67715;46.170;6.140;2023-07-13T06:54:22;3.00;;;1.30;;
78416;SDS011;67715;46.170;6.140;2023-07-13T06:56:48;4.67;;;3.07;;
78416;SDS011;67715;46.170;6.140;2023-07-13T06:59:13;4.07;;;2.30;;
78416;SDS011;67715;46.170;6.140;2023-07-13T07:01:38;5.33;;;2.00;;
78416;SDS011;67715;46.170;6.140;2023-07-13T07:04:04;2.30;;;1.63;;
78416;SDS011;67715;46.170;6.140;2023-07-13T07:06:29;4.18;;;2.30;;
78416;SDS011;67715;46.170;6.140;2023-07-13T07:08:55;4.05;;;1.80;;
78416;SDS011;67715;46.170;6.140;2023-07-13T07:11:21;3.50;;;2.50;;
78416;SDS011;67715;46.170;6.140;2023-07-13T07:13:48;2.10;;;1.40;;
78416;SDS011;67715;46.170;6.140;2023-07-13T07:16:14;2.92;;;1.90;;
78416;SDS011;67715;46.170;6.140;2023-07-13T07:18:40;3.58;;;1.58;;
78416;SDS011;67715;46.170;6.140;2023-07-13T07:21:05;3.47;;;1.40;;
78416;SDS011;67715;46.170;6.140;2023-07-13T07:23:30;3.85;;;1.10;;
78416;SDS011;67715;46.170;6.140;2023-07-13T07:25:56;1.52;;;1.05;;
78416;SDS011;67715;46.170;6.140;2023-07-13T07:28:21;2.50;;;1.20;;
78416;SDS011;67715;46.170;6.140;2023-07-13T07:30:47;1.98;;;0.90;;
78416;SDS011;67715;46.170;6.140;2023-07-13T07:33:13;1.85;;;0.60;;
78416;SDS011;67715;46.170;6.140;2023-07-13T07:35:39;1.70;;;1.13;;
78416;SDS011;67715;46.170;6.140;2023-07-13T07:38:04;1.37;;;0.90;;
78416;SDS011;67715;46.170;6.140;2023-07-13T07:40:29;1.80;;;1.07;;
78416;SDS011;67715;46.170;6.140;2023-07-13T07:42:56;3.50;;;1.05;;
78416;SDS011;67715;46.170;6.140;2023-07-13T07:45:21;2.25;;;1.10;;
78416;SDS011;67715;46.170;6.140;2023-07-13T07:47:47;5.00;;;1.37;;
78416;SDS011;67715;46.170;6.140;2023-07-13T07:50:12;2.90;;;0.80;;
78416;SDS011;67715;46.170;6.140;2023-07-13T07:52:38;1.73;;;1.00;;
78416;SDS011;67715;46.170;6.140;2023-07-13T07:55:04;2.22;;;0.98;;
78416;SDS011;67715;46.170;6.140;2023-07-13T07:57:30;3.55;;;0.90;;
78416;SDS011;67715;46.170;6.140;2023-07-13T07:59:55;1.80;;;1.10;;
78416;SDS011;67715;46.170;6.140;2023-07-13T08:02:21;1.40;;;0.87;;
78416;SDS011;67715;46.170;6.140;2023-07-13T08:04:46;1.23;;;0.80;;
78416;SDS011;67715;46.170;6.140;2023-07-13T08:07:11;1.73;;;0.83;;
78416;SDS011;67715;46.170;6.140;2023-07-13T08:09:37;2.50;;;1.13;;
78416;SDS011;67715;46.170;6.140;2023-07-13T08:12:02;1.60;;;0.70;;
78416;SDS011;67715;46.170;6.140;2023-07-13T08:14:27;1.42;;;1.00;;
78416;SDS011;67715;46.170;6.140;2023-07-13T08:16:53;1.77;;;1.00;;
78416;SDS011;67715;46.170;6.140;2023-07-13T08:19:18;1.48;;;0.93;;
78416;SDS011;67715;46.170;6.140;2023-07-13T08:21:44;1.98;;;0.77;;
78416;SDS011;67715;46.170;6.140;2023-07-13T08:24:09;2.15;;;0.93;;
78416;SDS011;67715;46.170;6.140;2023-07-13T08:26:35;2.20;;;0.95;;
78416;SDS011;67715;46.170;6.140;2023-07-13T08:29:00;1.75;;;0.90;;
78416;SDS011;67715;46.170;6.140;2023-07-13T08:31:27;2.28;;;0.80;;
78416;SDS011;67715;46.170;6.140;2023-07-13T08:33:52;2.53;;;0.90;;
78416;SDS011;67715;46.170;6.140;2023-07-13T08:36:17;1.70;;;0.87;;
78416;SDS011;67715;46.170;6.140;2023-07-13T08:38:43;1.00;;;0.77;;
78416;SDS011;67715;46.170;6.140;2023-07-13T08:41:15;2.33;;;0.73;;
78416;SDS011;67715;46.170;6.140;2023-07-13T08:43:43;4.03;;;1.08;;
78416;SDS011;67715;46.170;6.140;2023-07-13T08:48:50;1.20;;;0.85;;
78416;SDS011;67715;46.170;6.140;2023-07-13T08:56:19;3.00;;;0.90;;
78416;SDS011;67715;46.170;6.140;2023-07-13T08:58:46;3.35;;;1.10;;
78416;SDS011;67715;46.170;6.140;2023-07-13T09:01:15;4.97;;;1.50;;
78416;SDS011;67715;46.170;6.140;2023-07-13T09:06:43;2.88;;;1.13;;
78416;SDS011;67715;46.170;6.140;2023-07-13T09:12:33;4.78;;;1.40;;
78416;SDS011;67715;46.170;6.140;2023-07-13T09:15:05;1.63;;;1.05;;
78416;SDS011;67715;46.170;6.140;2023-07-13T09:17:45;1.83;;;1.10;;
78416;SDS011;67715;46.170;6.140;2023-07-13T09:20:18;2.67;;;0.95;;
78416;SDS011;67715;46.170;6.140;2023-07-13T09:22:44;1.40;;;0.80;;
78416;SDS011;67715;46.170;6.140;2023-07-13T09:27:57;3.47;;;1.10;;
78416;SDS011;67715;46.170;6.140;2023-07-13T09:30:37;3.67;;;1.02;;
78416;SDS011;67715;46.170;6.140;2023-07-13T09:33:10;6.20;;;1.08;;
78416;SDS011;67715;46.170;6.140;2023-07-13T09:35:36;1.95;;;1.30;;
78416;SDS011;67715;46.170;6.140;2023-07-13T09:38:11;2.70;;;0.88;;
78416;SDS011;67715;46.170;6.140;2023-07-13T09:43:24;2.75;;;1.20;;
78416;SDS011;67715;46.170;6.140;2023-07-13T09:45:49;1.63;;;0.90;;
78416;SDS011;67715;46.170;6.140;2023-07-13T09:48:15;2.23;;;1.07;;
78416;SDS011;67715;46.170;6.140;2023-07-13T09:50:42;2.40;;;1.00;;
78416;SDS011;67715;46.170;6.140;2023-07-13T09:53:15;3.88;;;1.10;;
78416;SDS011;67715;46.170;6.140;2023-07-13T09:55:43;2.60;;;1.00;;
78416;SDS011;67715;46.170;6.140;2023-07-13T10:00:37;3.63;;;1.40;;
78416;SDS011;67715;46.170;6.140;2023-07-13T10:03:27;4.43;;;1.17;;
78416;SDS011;67715;46.170;6.140;2023-07-13T10:05:57;2.03;;;1.10;;
78416;SDS011;67715;46.170;6.140;2023-07-13T10:08:31;1.40;;;0.90;;
78416;SDS011;67715;46.170;6.140;2023-07-13T10:11:01;1.70;;;0.70;;
78416;SDS011;67715;46.170;6.140;2023-07-13T10:13:41;2.70;;;1.00;;
78416;SDS011;67715;46.170;6.140;2023-07-13T10:16:08;1.23;;;0.90;;
78416;SDS011;67715;46.170;6.140;2023-07-13T10:18:45;2.47;;;1.20;;
78416;SDS011;67715;46.170;6.140;2023-07-13T10:21:13;3.08;;;1.00;;
78416;SDS011;67715;46.170;6.140;2023-07-13T10:23:47;1.55;;;0.80;;
78416;SDS011;67715;46.170;6.140;2023-07-13T10:26:17;5.13;;;1.45;;
78416;SDS011;67715;46.170;6.140;2023-07-13T10:28:47;1.48;;;0.98;;
78416;SDS011;67715;46.170;6.140;2023-07-13T10:31:16;1.60;;;1.02;;
78416;SDS011;67715;46.170;6.140;2023-07-13T10:33:42;2.55;;;0.80;;
78416;SDS011;67715;46.170;6.140;2023-07-13T10:36:19;1.65;;;0.75;;
78416;SDS011;67715;46.170;6.140;2023-07-13T10:38:53;2.70;;;1.13;;
78416;SDS011;67715;46.170;6.140;2023-07-13T10:41:23;1.60;;;0.90;;
78416;SDS011;67715;46.170;6.140;2023-07-13T10:43:51;1.85;;;1.00;;
78416;SDS011;67715;46.170;6.140;2023-07-13T10:46:18;3.97;;;1.10;;
78416;SDS011;67715;46.170;6.140;2023-07-13T10:48:46;2.10;;;0.90;;
78416;SDS011;67715;46.170;6.140;2023-07-13T10:51:14;1.35;;;0.80;;
78416;SDS011;67715;46.170;6.140;2023-07-13T10:53:41;1.98;;;0.80;;
78416;SDS011;67715;46.170;6.140;2023-07-13T10:58:41;2.13;;;0.93;;
78416;SDS011;67715;46.170;6.140;2023-07-13T11:01:09;1.90;;;0.93;;
78416;SDS011;67715;46.170;6.140;2023-07-13T11:08:54;3.78;;;0.90;;
78416;SDS011;67715;46.170;6.140;2023-07-13T11:18:44;2.13;;;0.80;;
78416;SDS011;67715;46.170;6.140;2023-07-13T11:21:18;1.83;;;1.05;;
78416;SDS011;67715;46.170;6.140;2023-07-13T11:31:55;3.45;;;0.80;;
78416;SDS011;67715;46.170;6.140;2023-07-13T11:34:43;1.25;;;0.80;;
78416;SDS011;67715;46.170;6.140;2023-07-13T11:37:10;2.53;;;0.80;;
78416;SDS011;67715;46.170;6.140;2023-07-13T11:39:38;2.28;;;0.80;;
78416;SDS011;67715;46.170;6.140;2023-07-13T11:42:12;1.38;;;0.82;;
78416;SDS011;67715;46.170;6.140;2023-07-13T11:44:43;3.47;;;0.80;;
78416;SDS011;67715;46.170;6.140;2023-07-13T11:47:12;2.08;;;0.88;;
78416;SDS011;67715;46.170;6.140;2023-07-13T11:49:43;1.40;;;0.82;;
78416;SDS011;67715;46.170;6.140;2023-07-13T11:52:12;1.40;;;0.90;;
78416;SDS011;67715;46.170;6.140;2023-07-13T11:54:46;2.08;;;1.02;;
78416;SDS011;67715;46.170;6.140;2023-07-13T11:57:29;1.38;;;0.80;;
78416;SDS011;67715;46.170;6.140;2023-07-13T11:59:56;1.25;;;0.73;;
78416;SDS011;67715;46.170;6.140;2023-07-13T12:02:31;1.33;;;0.80;;
78416;SDS011;67715;46.170;6.140;2023-07-13T12:04:58;2.42;;;1.02;;
78416;SDS011;67715;46.170;6.140;2023-07-13T12:07:25;4.03;;;1.30;;
78416;SDS011;67715;46.170;6.140;2023-07-13T12:09:53;2.85;;;0.90;;
78416;SDS011;67715;46.170;6.140;2023-07-13T12:12:20;4.37;;;0.97;;
78416;SDS011;67715;46.170;6.140;2023-07-13T12:14:50;1.17;;;0.93;;
78416;SDS011;67715;46.170;6.140;2023-07-13T12:17:18;1.90;;;0.70;;
78416;SDS011;67715;46.170;6.140;2023-07-13T12:19:46;1.08;;;0.80;;
78416;SDS011;67715;46.170;6.140;2023-07-13T12:22:13;1.42;;;0.85;;
78416;SDS011;67715;46.170;6.140;2023-07-13T12:24:39;1.10;;;0.80;;
78416;SDS011;67715;46.170;6.140;2023-07-13T12:27:05;2.55;;;0.80;;
78416;SDS011;67715;46.170;6.140;2023-07-13T12:29:31;2.45;;;0.82;;
78416;SDS011;67715;46.170;6.140;2023-07-13T12:31:57;1.20;;;0.75;;
78416;SDS011;67715;46.170;6.140;2023-07-13T12:34:24;1.50;;;0.60;;
78416;SDS011;67715;46.170;6.140;2023-07-13T12:36:54;1.65;;;0.70;;
78416;SDS011;67715;46.170;6.140;2023-07-13T12:39:38;1.80;;;0.90;;
78416;SDS011;67715;46.170;6.140;2023-07-13T12:42:26;1.90;;;0.82;;
78416;SDS011;67715;46.170;6.140;2023-07-13T12:45:01;2.35;;;0.82;;
78416;SDS011;67715;46.170;6.140;2023-07-13T12:47:32;2.25;;;0.73;;
78416;SDS011;67715;46.170;6.140;2023-07-13T12:50:12;1.52;;;0.88;;
78416;SDS011;67715;46.170;6.140;2023-07-13T12:52:39;2.85;;;0.88;;
78416;SDS011;67715;46.170;6.140;2023-07-13T12:55:12;1.65;;;1.05;;
78416;SDS011;67715;46.170;6.140;2023-07-13T12:57:53;1.05;;;0.77;;
78416;SDS011;67715;46.170;6.140;2023-07-13T13:03:01;1.85;;;0.77;;
78416;SDS011;67715;46.170;6.140;2023-07-13T13:05:30;1.90;;;0.90;;
78416;SDS011;67715;46.170;6.140;2023-07-13T13:07:57;1.63;;;0.77;;
78416;SDS011;67715;46.170;6.140;2023-07-13T13:10:22;1.40;;;0.85;;
78416;SDS011;67715;46.170;6.140;2023-07-13T13:12:48;2.08;;;0.90;;
78416;SDS011;67715;46.170;6.140;2023-07-13T13:15:13;7.38;;;1.25;;
78416;SDS011;67715;46.170;6.140;2023-07-13T13:17:39;1.23;;;0.85;;
78416;SDS011;67715;46.170;6.140;2023-07-13T13:20:14;1.10;;;0.77;;
78416;SDS011;67715;46.170;6.140;2023-07-13T13:22:41;2.20;;;1.13;;
78416;SDS011;67715;46.170;6.140;2023-07-13T13:25:08;1.50;;;0.90;;
78416;SDS011;67715;46.170;6.140;2023-07-13T13:27:37;1.50;;;1.00;;
78416;SDS011;67715;46.170;6.140;2023-07-13T13:30:09;5.40;;;1.48;;
78416;SDS011;67715;46.170;6.140;2023-07-13T13:32:39;1.40;;;1.02;;
78416;SDS011;67715;46.170;6.140;2023-07-13T13:35:05;2.63;;;1.17;;
78416;SDS011;67715;46.170;6.140;2023-07-13T13:37:32;3.13;;;0.98;;
78416;SDS011;67715;46.170;6.140;2023-07-13T13:39:58;4.65;;;1.20;;
78416;SDS011;67715;46.170;6.140;2023-07-13T13:42:23;2.07;;;1.10;;
78416;SDS011;67715;46.170;6.140;2023-07-13T13:44:50;5.32;;;1.20;;
78416;SDS011;67715;46.170;6.140;2023-07-13T13:47:19;1.13;;;0.70;;
78416;SDS011;67715;46.170;6.140;2023-07-13T13:49:50;1.58;;;1.35;;
78416;SDS011;67715;46.170;6.140;2023-07-13T13:52:15;1.67;;;1.00;;
78416;SDS011;67715;46.170;6.140;2023-07-13T13:54:40;2.70;;;0.87;;
78416;SDS011;67715;46.170;6.140;2023-07-13T13:57:07;3.10;;;0.90;;
78416;SDS011;67715;46.170;6.140;2023-07-13T13:59:33;1.35;;;0.80;;
78416;SDS011;67715;46.170;6.140;2023-07-13T14:02:07;3.47;;;1.00;;
78416;SDS011;67715;46.170;6.140;2023-07-13T14:04:45;1.88;;;0.85;;
78416;SDS011;67715;46.170;6.140;2023-07-13T14:07:10;1.65;;;0.93;;
78416;SDS011;67715;46.170;6.140;2023-07-13T14:09:37;2.22;;;0.73;;
78416;SDS011;67715;46.170;6.140;2023-07-13T14:12:03;4.00;;;1.10;;
78416;SDS011;67715;46.170;6.140;2023-07-13T14:14:30;1.45;;;1.05;;
78416;SDS011;67715;46.170;6.140;2023-07-13T14:16:56;2.05;;;0.90;;
78416;SDS011;67715;46.170;6.140;2023-07-13T14:19:22;2.13;;;1.10;;
78416;SDS011;67715;46.170;6.140;2023-07-13T14:21:48;4.63;;;1.60;;
78416;SDS011;67715;46.170;6.140;2023-07-13T14:24:14;1.60;;;0.93;;
78416;SDS011;67715;46.170;6.140;2023-07-13T14:26:40;2.70;;;1.10;;
78416;SDS011;67715;46.170;6.140;2023-07-13T14:29:15;1.40;;;0.85;;
78416;SDS011;67715;46.170;6.140;2023-07-13T14:31:42;3.90;;;1.50;;
78416;SDS011;67715;46.170;6.140;2023-07-13T14:34:11;1.92;;;1.00;;
78416;SDS011;67715;46.170;6.140;2023-07-13T14:36:42;2.03;;;1.40;;
78416;SDS011;67715;46.170;6.140;2023-07-13T14:39:14;1.77;;;0.85;;
78416;SDS011;67715;46.170;6.140;2023-07-13T14:41:41;1.58;;;1.10;;
78416;SDS011;67715;46.170;6.140;2023-07-13T14:44:10;2.20;;;1.00;;
78416;SDS011;67715;46.170;6.140;2023-07-13T14:46:36;3.92;;;1.10;;
78416;SDS011;67715;46.170;6.140;2023-07-13T14:49:06;2.63;;;1.27;;
78416;SDS011;67715;46.170;6.140;2023-07-13T14:51:38;3.90;;;1.10;;
78416;SDS011;67715;46.170;6.140;2023-07-13T14:54:04;2.10;;;1.10;;
78416;SDS011;67715;46.170;6.140;2023-07-13T14:56:31;3.33;;;0.98;;
78416;SDS011;67715;46.170;6.140;2023-07-13T14:58:56;1.55;;;0.90;;
78416;SDS011;67715;46.170;6.140;2023-07-13T15:01:22;2.08;;;1.05;;
78416;SDS011;67715;46.170;6.140;2023-07-13T15:03:49;1.42;;;1.00;;
78416;SDS011;67715;46.170;6.140;2023-07-13T15:06:16;1.90;;;0.90;;
78416;SDS011;67715;46.170;6.140;2023-07-13T15:08:42;2.22;;;1.13;;
78416;SDS011;67715;46.170;6.140;2023-07-13T15:11:08;1.20;;;0.93;;
78416;SDS011;67715;46.170;6.140;2023-07-13T15:13:36;3.53;;;1.70;;
78416;SDS011;67715;46.170;6.140;2023-07-13T15:16:02;1.83;;;1.15;;
78416;SDS011;67715;46.170;6.140;2023-07-13T15:18:28;5.97;;;1.40;;
78416;SDS011;67715;46.170;6.140;2023-07-13T15:20:53;1.77;;;1.00;;
78416;SDS011;67715;46.170;6.140;2023-07-13T15:23:21;2.25;;;1.08;;
78416;SDS011;67715;46.170;6.140;2023-07-13T15:25:47;1.17;;;0.80;;
78416;SDS011;67715;46.170;6.140;2023-07-13T15:28:13;2.30;;;0.90;;
78416;SDS011;67715;46.170;6.140;2023-07-13T15:30:40;4.57;;;1.23;;
78416;SDS011;67715;46.170;6.140;2023-07-13T15:33:10;2.08;;;1.27;;
78416;SDS011;67715;46.170;6.140;2023-07-13T15:35:42;3.35;;;1.30;;